Time;durP1;ratioP1;P1;durP2;ratioP2;P2;SDS_P1;SDS_P2;PMS_P1;PMS_P2;Temp;Humidity;BMP_temperature;BMP_pressure;BME280_temperature;BME280_humidity;BME280_pressure;Samples;Min_cycle;Max_cycle;Signal;HPM_P1;HPM_P2
2024/01/19 00:00:07;;;;;;;1.13;0.85;;;19.80;42.70;;;;;;5052821;28;20568;-29
2024/01/19 00:02:34;;;;;;;2.53;0.90;;;18.60;57.20;;;;;;5052400;28;20052;-28
2024/01/19 00:05:01;;;;;;;1.27;0.80;;;19.30;57.70;;;;;;5052638;28;20095;-37
2024/01/19 00:07:29;;;;;;;1.55;0.80;;;19.90;47.70;;;;;;5052418;28;20522;-36
2024/01/19 00:09:56;;;;;;;1.20;0.80;;;19.30;52.40;;;;;;5071555;28;20459;-29
2024/01/19 00:12:23;;;;;;;1.33;0.80;;;18.80;57.50;;;;;;5072019;28;20052;-28
2024/01/19 00:14:49;;;;;;;1.95;0.95;;;19.10;57.80;;;;;;5072543;28;20045;-36
2024/01/19 00:17:16;;;;;;;0.82;0.60;;;19.10;56.80;;;;;;5070771;28;20094;-36
2024/01/19 00:19:43;;;;;;;1.58;0.85;;;19.40;48.40;;;;;;5052341;28;20083;-29
2024/01/19 00:22:10;;;;;;;0.80;0.80;;;;;;;;;;5052199;28;20098;-33
2024/01/19 00:24:39;;;;;;;1.70;0.80;;;18.60;57.30;;;;;;5052355;28;20044;-35
2024/01/19 00:27:06;;;;;;;2.17;1.00;;;19.90;58.20;;;;;;5051942;28;20048;-35
2024/01/19 00:29:32;;;;;;;1.42;0.90;;;19.40;53.20;;;;;;5052233;28;20466;-36
2024/01/19 00:31:59;;;;;;;1.38;0.80;;;18.50;41.90;;;;;;5052104;28;20179;-36
2024/01/19 00:34:26;;;;;;;1.45;0.80;;;;;;;;;;5052016;28;20048;-33
2024/01/19 00:36:53;;;;;;;0.80;0.80;;;18.60;57.70;;;;;;5059019;28;20386;-28
2024/01/19 00:39:20;;;;;;;1.27;0.80;;;18.70;58.30;;;;;;5053960;28;20055;-28
2024/01/19 00:41:48;;;;;;;1.15;0.85;;;18.70;37.90;;;;;;5051816;28;20099;-30
2024/01/19 00:44:15;;;;;;;1.17;0.70;;;18.40;51.40;;;;;;5051909;28;20045;-28
2024/01/19 00:46:42;;;;;;;0.73;0.68;;;18.60;41.20;;;;;;5051564;28;20502;-28
2024/01/19 00:49:09;;;;;;;1.25;0.80;;;;;;;;;;5053180;28;20061;-31
2024/01/19 00:51:36;;;;;;;1.63;0.90;;;19.00;46.80;;;;;;5051801;28;20464;-38
2024/01/19 00:54:02;;;;;;;1.52;1.10;;;18.70;58.60;;;;;;5051999;28;20056;-37
2024/01/19 00:56:29;;;;;;;1.58;0.80;;;19.00;48.10;;;;;;5051561;28;20552;-37
2024/01/19 00:58:57;;;;;;;1.20;0.77;;;18.30;58.50;;;;;;5052139;28;20053;-35
2024/01/19 01:01:24;;;;;;;1.65;0.90;;;18.30;58.20;;;;;;5051668;28;20057;-29
2024/01/19 01:03:52;;;;;;;0.80;0.80;;;;;;;;;;5051611;28;20044;-31
2024/01/19 01:06:19;;;;;;;0.52;0.52;;;18.40;38.10;;;;;;5051764;28;20052;-28
2024/01/19 01:08:46;;;;;;;0.82;0.65;;;;;;;;;;5060960;28;20579;-31
2024/01/19 01:11:12;;;;;;;1.27;0.80;;;18.50;58.80;;;;;;5054187;28;20057;-28
2024/01/19 01:13:40;;;;;;;0.95;0.75;;;;;;;;;;5071522;28;20517;-35
2024/01/19 01:16:08;;;;;;;1.02;0.70;;;18.10;58.60;;;;;;5071546;28;20044;-34
2024/01/19 01:18:35;;;;;;;0.90;0.60;;;17.70;52.90;;;;;;5062941;28;20045;-37
2024/01/19 01:21:03;;;;;;;0.88;0.77;;;18.50;48.00;;;;;;5051642;28;20057;-35
2024/01/19 01:23:31;;;;;;;0.98;0.73;;;;;;;;;;5051430;28;20106;-34
2024/01/19 01:25:57;;;;;;;1.02;0.70;;;17.90;58.50;;;;;;5051212;28;20049;-28
2024/01/19 01:28:24;;;;;;;0.98;0.80;;;18.40;51.00;;;;;;5057885;28;20048;-29
2024/01/19 01:30:51;;;;;;;1.08;0.60;;;;;;;;;;5052937;28;20052;-28
2024/01/19 01:33:21;;;;;;;1.15;0.50;;;18.10;49.20;;;;;;5051254;28;20052;-28
2024/01/19 01:35:47;;;;;;;1.17;0.80;;;17.90;56.80;;;;;;5051343;28;20045;-28
2024/01/19 01:38:15;;;;;;;1.05;0.63;;;;;;;;;;5065135;28;20564;-33
2024/01/19 01:40:41;;;;;;;0.93;0.60;;;17.90;58.70;;;;;;5051179;28;20692;-35
2024/01/19 01:43:09;;;;;;;0.95;0.60;;;;;;;;;;5051208;28;20417;-36
2024/01/19 01:45:35;;;;;;;1.00;0.60;;;18.00;59.20;;;;;;5051477;28;20049;-28
2024/01/19 01:48:03;;;;;;;0.70;0.60;;;;;;;;;;5052805;28;20575;-34
2024/01/19 01:50:31;;;;;;;0.70;0.60;;;18.20;59.40;;;;;;5055407;28;20053;-36
2024/01/19 01:52:58;;;;;;;0.52;0.45;;;18.80;59.50;;;;;;5055032;28;20091;-35
2024/01/19 01:55:25;;;;;;;1.35;0.68;;;17.90;46.60;;;;;;5055070;28;20076;-29
2024/01/19 01:57:52;;;;;;;0.77;0.60;;;17.60;59.10;;;;;;5054665;28;20049;-34
2024/01/19 02:00:19;;;;;;;0.88;0.60;;;17.80;59.30;;;;;;5055288;28;20640;-35
2024/01/19 02:02:46;;;;;;;0.75;0.60;;;17.90;59.00;;;;;;5055877;28;20073;-28
2024/01/19 02:05:12;;;;;;;0.90;0.50;;;18.00;59.10;;;;;;5074966;28;20040;-28
2024/01/19 02:07:40;;;;;;;0.80;0.73;;;17.40;38.70;;;;;;5074623;28;20409;-35
2024/01/19 02:10:08;;;;;;;0.65;0.47;;;18.30;40.90;;;;;;5054855;28;20044;-35
2024/01/19 02:12:35;;;;;;;0.45;0.45;;;18.10;59.60;;;;;;5068541;28;20109;-38
2024/01/19 02:15:02;;;;;;;0.63;0.50;;;;;;;;;;5074655;28;20053;-34
2024/01/19 02:17:28;;;;;;;1.42;0.65;;;18.90;59.70;;;;;;5074759;28;20064;-28
2024/01/19 02:19:56;;;;;;;0.55;0.52;;;;;;;;;;5056220;28;20049;-33
2024/01/19 02:22:22;;;;;;;0.90;0.70;;;17.80;59.00;;;;;;5054548;28;20045;-28
2024/01/19 02:24:50;;;;;;;1.13;0.63;;;17.90;38.60;;;;;;5054324;28;20053;-28
2024/01/19 02:27:18;;;;;;;0.93;0.60;;;;;;;;;;5054776;28;20609;-34
2024/01/19 02:29:50;;;;;;;0.65;0.60;;;17.40;59.20;;;;;;5054696;28;20110;-28
2024/01/19 02:32:16;;;;;;;0.60;0.60;;;18.10;59.20;;;;;;5054208;28;20091;-29
2024/01/19 02:34:45;;;;;;;0.60;0.60;;;18.30;59.40;;;;;;5055522;28;20098;-35
2024/01/19 02:37:13;;;;;;;0.93;0.63;;;18.20;52.40;;;;;;5065248;28;20048;-35
2024/01/19 02:39:40;;;;;;;0.70;0.68;;;;;;;;;;5074148;28;20071;-31
2024/01/19 02:42:09;;;;;;;1.13;0.63;;;18.10;59.50;;;;;;5074157;28;20048;-33
2024/01/19 02:44:35;;;;;;;0.95;0.60;;;17.80;59.30;;;;;;5071678;28;20101;-36
2024/01/19 02:47:03;;;;;;;1.77;0.90;;;;;;;;;;5053997;28;20402;-34
2024/01/19 02:49:30;;;;;;;0.63;0.50;;;19.20;60.00;;;;;;5054255;28;20130;-28
2024/01/19 02:51:57;;;;;;;0.60;0.57;;;;;;;;;;5053830;28;20564;-31
2024/01/19 02:54:24;;;;;;;0.45;0.40;;;17.10;55.70;;;;;;5053926;28;20052;-28
2024/01/19 02:56:51;;;;;;;1.65;0.63;;;;;;;;;;5053998;28;20052;-34
2024/01/19 02:59:19;;;;;;;1.70;0.73;;;17.90;59.00;;;;;;5056319;28;20463;-28
2024/01/19 03:01:46;;;;;;;1.23;0.63;;;17.50;58.70;;;;;;5073735;28;20737;-28
2024/01/19 03:04:13;;;;;;;0.90;0.60;;;18.50;46.60;;;;;;5073868;28;20110;-28
2024/01/19 03:06:40;;;;;;;0.70;0.60;;;19.50;47.60;;;;;;5054437;28;20391;-27
2024/01/19 03:09:07;;;;;;;1.27;0.73;;;;;;;;;;5053631;28;20052;-34
2024/01/19 03:11:34;;;;;;;1.23;0.57;;;18.20;58.80;;;;;;5059308;28;20460;-38
2024/01/19 03:14:00;;;;;;;1.10;0.77;;;18.70;59.00;;;;;;5074000;28;20090;-36
2024/01/19 03:16:29;;;;;;;1.15;0.70;;;18.20;45.70;;;;;;5056027;28;20075;-35
2024/01/19 03:19:00;;;;;;;0.85;0.70;;;;;;;;;;5053604;28;20486;-29
2024/01/19 03:21:27;;;;;;;0.82;0.75;;;18.40;58.60;;;;;;5053635;28;20053;-28
2024/01/19 03:23:54;;;;;;;1.02;0.70;;;;;;;;;;5053740;28;20104;-31
2024/01/19 03:26:21;;;;;;;1.02;0.77;;;18.00;58.00;;;;;;5053185;28;20087;-28
2024/01/19 03:28:48;;;;;;;0.73;0.57;;;;;;;;;;5053460;28;20090;-33
2024/01/19 03:31:14;;;;;;;0.60;0.52;;;18.00;58.20;;;;;;5053162;28;20449;-35
2024/01/19 03:33:43;;;;;;;0.70;0.70;;;18.60;58.20;;;;;;5053217;28;20053;-38
2024/01/19 03:36:09;;;;;;;1.10;0.68;;;18.90;54.10;;;;;;5055545;28;20074;-36
2024/01/19 03:38:37;;;;;;;1.17;0.60;;;;;;;;;;5073259;28;20463;-35
2024/01/19 03:41:04;;;;;;;0.90;0.60;;;19.20;58.30;;;;;;5072899;28;20041;-35
2024/01/19 03:43:30;;;;;;;1.23;0.73;;;18.20;55.00;;;;;;5072816;28;20057;-33
2024/01/19 03:45:57;;;;;;;0.93;0.60;;;19.20;58.80;;;;;;5060401;28;20045;-34
2024/01/19 03:48:24;;;;;;;1.50;0.93;;;;;;;;;;5052766;28;20464;-32
2024/01/19 03:50:52;;;;;;;1.73;0.63;;;19.30;58.30;;;;;;5052974;28;20106;-37
2024/01/19 03:53:20;;;;;;;0.82;0.70;;;;;;;;;;5052661;28;20049;-36
2024/01/19 03:55:48;;;;;;;1.15;0.70;;;19.00;41.30;;;;;;5058220;28;20036;-34
2024/01/19 03:58:15;;;;;;;0.75;0.52;;;19.00;57.10;;;;;;5072651;28;20044;-34
2024/01/19 04:00:42;;;;;;;1.77;0.80;;;;;;;;;;5072696;28;20056;-37
2024/01/19 04:03:09;;;;;;;0.77;0.60;;;20.20;48.70;;;;;;5069497;28;20842;-36
2024/01/19 04:05:35;;;;;;;1.65;0.65;;;19.40;51.20;;;;;;5052872;28;20044;-38
2024/01/19 04:08:04;;;;;;;0.63;0.55;;;19.00;57.90;;;;;;5052629;28;20087;-35
2024/01/19 04:10:31;;;;;;;0.80;0.60;;;;;;;;;;5052225;28;20053;-32
2024/01/19 04:12:58;;;;;;;1.98;0.70;;;19.40;58.20;;;;;;5068422;28;20459;-34
2024/01/19 04:15:25;;;;;;;0.82;0.70;;;;;;;;;;5052411;28;20057;-31
2024/01/19 04:17:52;;;;;;;0.90;0.65;;;19.60;58.60;;;;;;5050875;28;20413;-37
2024/01/19 04:20:19;;;;;;;1.13;0.70;;;;;;;;;;5052546;28;20073;-33
2024/01/19 04:22:46;;;;;;;0.80;0.60;;;18.80;57.80;;;;;;5052143;28;20444;-30
2024/01/19 04:25:14;;;;;;;1.70;0.73;;;18.90;49.00;;;;;;5052445;28;20052;-28
2024/01/19 04:27:41;;;;;;;0.63;0.60;;;;;;;;;;5051899;28;20100;-27
2024/01/19 04:30:09;;;;;;;1.15;0.70;;;19.50;58.10;;;;;;5052188;28;20102;-36
2024/01/19 04:32:36;;;;;;;0.88;0.60;;;19.40;52.50;;;;;;5051956;28;20049;-35
2024/01/19 04:35:04;;;;;;;1.38;0.77;;;19.90;58.40;;;;;;5052278;28;20460;-37
2024/01/19 04:37:31;;;;;;;1.17;0.80;;;19.20;57.80;;;;;;5052708;28;20045;-35
2024/01/19 04:39:58;;;;;;;1.15;0.63;;;;;;;;;;5052060;28;20110;-31
2024/01/19 04:42:26;;;;;;;1.27;0.70;;;19.40;58.30;;;;;;5051750;28;20605;-28
2024/01/19 04:44:53;;;;;;;0.82;0.70;;;18.50;57.50;;;;;;5052021;28;20099;-27
2024/01/19 04:47:21;;;;;;;0.85;0.63;;;;;;;;;;5051882;28;20049;-33
2024/01/19 04:49:48;;;;;;;0.85;0.60;;;19.20;57.90;;;;;;5051712;28;20056;-28
2024/01/19 04:52:15;;;;;;;1.33;0.70;;;19.10;57.70;;;;;;5058864;28;20098;-28
2024/01/19 04:54:42;;;;;;;1.10;0.70;;;19.50;57.90;;;;;;5057266;28;20687;-28
2024/01/19 04:57:08;;;;;;;0.82;0.70;;;18.30;49.00;;;;;;5061698;28;20100;-28
2024/01/19 04:59:37;;;;;;;1.77;1.00;;;19.60;58.00;;;;;;5071785;28;20044;-28
2024/01/19 05:02:04;;;;;;;0.68;0.60;;;19.00;57.70;;;;;;5071787;28;20052;-28
2024/01/19 05:04:31;;;;;;;1.27;0.77;;;;;;;;;;5071234;28;20052;-31
2024/01/19 05:06:58;;;;;;;1.10;0.60;;;;;;;;;;5071600;28;20563;-29
2024/01/19 05:09:25;;;;;;;1.55;0.75;;;19.70;41.40;;;;;;5067503;28;20127;-33
2024/01/19 05:11:52;;;;;;;0.70;0.65;;;19.50;57.80;;;;;;5071423;28;20068;-36
2024/01/19 05:14:19;;;;;;;1.30;0.50;;;;;;;;;;5060771;28;20044;-32
2024/01/19 05:16:47;;;;;;;1.33;0.77;;;18.40;57.10;;;;;;5051209;28;20053;-34
2024/01/19 05:19:14;;;;;;;1.27;0.57;;;19.20;44.10;;;;;;5051781;28;20057;-38
2024/01/19 05:21:40;;;;;;;0.80;0.57;;;19.10;57.60;;;;;;5051372;28;20053;-34
2024/01/19 05:24:07;;;;;;;1.10;0.70;;;18.70;46.90;;;;;;5055222;28;20072;-29
2024/01/19 05:26:34;;;;;;;0.60;0.60;;;19.40;58.10;;;;;;5055238;28;20383;-28
2024/01/19 05:29:01;;;;;;;1.08;0.80;;;;;;;;;;5055839;28;20094;-33
2024/01/19 05:31:28;;;;;;;1.25;0.70;;;19.00;51.20;;;;;;5055659;28;20477;-28
2024/01/19 05:33:56;;;;;;;1.08;0.63;;;19.40;37.90;;;;;;5055630;28;20087;-32
2024/01/19 05:36:24;;;;;;;1.20;0.80;;;;;;;;;;5059368;28;20044;-33
2024/01/19 05:38:51;;;;;;;0.65;0.65;;;;;;;;;;5075395;28;20105;-28
2024/01/19 05:41:21;;;;;;;0.55;0.50;;;18.40;39.20;;;;;;5075182;28;20052;-29
2024/01/19 05:43:48;;;;;;;1.08;0.60;;;;;;;;;;5068733;28;20457;-30
2024/01/19 05:46:15;;;;;;;1.27;0.70;;;;;;;;;;5055142;28;20106;-28
2024/01/19 05:48:42;;;;;;;0.77;0.70;;;20.30;46.60;;;;;;5063802;28;20048;-32
2024/01/19 05:51:14;;;;;;;0.50;0.47;;;19.90;58.30;;;;;;5075071;28;20504;-28
2024/01/19 05:53:40;;;;;;;0.82;0.60;;;19.10;57.50;;;;;;5070389;28;20092;-28
2024/01/19 05:56:07;;;;;;;0.93;0.68;;;;;;;;;;5054712;28;20102;-30
2024/01/19 05:58:34;;;;;;;1.30;0.65;;;19.80;50.50;;;;;;5055153;28;20045;-29
2024/01/19 06:01:02;;;;;;;1.30;0.70;;;19.80;57.90;;;;;;5055010;28;20106;-28
2024/01/19 06:03:30;;;;;;;1.05;0.77;;;;;;;;;;5058422;28;20409;-36
2024/01/19 06:05:57;;;;;;;0.88;0.70;;;19.30;57.50;;;;;;5054833;28;20465;-38
2024/01/19 06:08:25;;;;;;;0.70;0.60;;;18.90;46.40;;;;;;5055089;28;20124;-28
2024/01/19 06:10:52;;;;;;;1.48;0.75;;;19.70;58.20;;;;;;5054939;28;20045;-27
2024/01/19 06:13:19;;;;;;;1.45;0.60;;;19.60;58.10;;;;;;5054831;28;20049;-29
2024/01/19 06:15:46;;;;;;;1.15;0.77;;;;;;;;;;5054874;28;20494;-28
2024/01/19 06:18:13;;;;;;;2.25;0.73;;;19.60;51.80;;;;;;5054277;28;20045;-28
2024/01/19 06:20:42;;;;;;;1.40;0.70;;;19.60;57.70;;;;;;5055090;28;20052;-28
2024/01/19 06:23:09;;;;;;;1.40;0.60;;;;;;;;;;5054513;28;20076;-32
2024/01/19 06:25:37;;;;;;;1.70;0.70;;;19.40;37.80;;;;;;5054675;28;20044;-29
2024/01/19 06:28:04;;;;;;;1.02;0.68;;;19.00;57.60;;;;;;5054410;28;20102;-28
2024/01/19 06:30:31;;;;;;;1.00;0.70;;;19.40;40.70;;;;;;5054326;28;20099;-30
2024/01/19 06:32:58;;;;;;;1.02;0.65;;;;;;;;;;5054052;28;20470;-28
2024/01/19 06:35:25;;;;;;;0.90;0.60;;;;;;;;;;5054732;28;20080;-33
2024/01/19 06:37:52;;;;;;;1.30;0.60;;;19.30;57.60;;;;;;5056653;28;20116;-28
2024/01/19 06:40:19;;;;;;;1.38;0.60;;;;;;;;;;5054582;28;20103;-28
2024/01/19 06:42:47;;;;;;;0.47;0.47;;;19.80;41.80;;;;;;5054156;28;20131;-28
2024/01/19 06:45:16;;;;;;;0.60;0.50;;;18.50;57.10;;;;;;5064896;28;20505;-29
2024/01/19 06:47:42;;;;;;;2.28;0.70;;;20.20;58.20;;;;;;5074343;28;20447;-28
2024/01/19 06:50:10;;;;;;;1.65;0.82;;;19.40;37.70;;;;;;5071777;28;20055;-34
2024/01/19 06:52:37;;;;;;;1.65;0.70;;;19.00;57.40;;;;;;5053953;28;20057;-38
2024/01/19 06:55:04;;;;;;;2.88;0.60;;;19.90;38.00;;;;;;5054006;28;20040;-33
2024/01/19 06:57:31;;;;;;;1.13;0.80;;;;;;;;;;5053832;28;20057;-34
2024/01/19 06:59:59;;;;;;;1.50;0.70;;;20.10;53.60;;;;;;5053944;28;20049;-37
2024/01/19 07:02:26;;;;;;;1.38;0.85;;;19.60;55.20;;;;;;5053725;28;20056;-31
2024/01/19 07:04:53;;;;;;;1.25;0.65;;;19.70;58.10;;;;;;5053846;28;20560;-37
2024/01/19 07:07:20;;;;;;;1.63;0.77;;;;;;;;;;5053776;28;20118;-33
2024/01/19 07:09:46;;;;;;;1.73;0.88;;;19.10;55.10;;;;;;5053681;28;20495;-35
2024/01/19 07:12:15;;;;;;;1.15;0.70;;;20.40;45.10;;;;;;5064460;28;20090;-37
2024/01/19 07:14:41;;;;;;;1.08;0.70;;;20.50;58.20;;;;;;5073645;28;20135;-28
2024/01/19 07:17:09;;;;;;;2.35;0.90;;;19.40;37.70;;;;;;5073646;28;20116;-33
2024/01/19 07:19:37;;;;;;;0.75;0.70;;;;;;;;;;5073393;28;20049;-33
2024/01/19 07:22:03;;;;;;;1.30;0.68;;;20.20;48.90;;;;;;5055996;28;20075;-37
2024/01/19 07:24:32;;;;;;;1.48;0.82;;;;;;;;;;5053551;28;20072;-31
2024/01/19 07:26:59;;;;;;;1.98;0.95;;;19.50;46.50;;;;;;5071380;28;20041;-36
2024/01/19 07:29:26;;;;;;;2.33;0.73;;;19.20;57.50;;;;;;5073520;28;20052;-34
2024/01/19 07:31:54;;;;;;;1.92;0.90;;;;;;;;;;5072205;28;20109;-31
2024/01/19 07:34:22;;;;;;;1.63;0.77;;;19.20;48.60;;;;;;5073006;28;20056;-34
2024/01/19 07:36:49;;;;;;;1.38;0.70;;;19.30;50.50;;;;;;5072991;28;20106;-36
2024/01/19 07:39:18;;;;;;;1.92;0.80;;;19.10;57.30;;;;;;5068725;28;20094;-34
2024/01/19 07:41:45;;;;;;;1.55;0.70;;;18.60;41.80;;;;;;5065140;28;20041;-35
2024/01/19 07:44:12;;;;;;;2.10;0.90;;;19.60;58.00;;;;;;5057540;28;20045;-37
2024/01/19 07:46:40;;;;;;;3.40;0.90;;;19.70;58.20;;;;;;5059029;28;20290;-38
2024/01/19 07:49:07;;;;;;;2.83;1.10;;;18.70;48.00;;;;;;5068603;28;20048;-34
2024/01/19 07:51:35;;;;;;;1.27;0.85;;;19.50;37.80;;;;;;5060904;28;20049;-36
2024/01/19 07:54:01;;;;;;;1.52;0.75;;;19.60;40.60;;;;;;5052868;28;20056;-34
2024/01/19 07:56:28;;;;;;;1.33;0.60;;;19.60;57.80;;;;;;5052704;28;20041;-34
2024/01/19 07:58:55;;;;;;;2.08;1.02;;;19.40;57.60;;;;;;5053137;28;20448;-37
2024/01/19 08:01:22;;;;;;;1.63;0.68;;;20.20;44.70;;;;;;5062572;28;20052;-33
2024/01/19 08:03:49;;;;;;;0.93;0.80;;;19.70;57.60;;;;;;5072887;28;20083;-34
2024/01/19 08:06:16;;;;;;;1.55;0.70;;;;;;;;;;5065207;28;20099;-31
2024/01/19 08:08:44;;;;;;;1.83;0.90;;;20.00;57.30;;;;;;5052541;28;20041;-35
2024/01/19 08:11:11;;;;;;;1.23;0.90;;;19.80;57.40;;;;;;5061115;28;20044;-34
2024/01/19 08:13:38;;;;;;;0.63;0.60;;;20.20;57.80;;;;;;5072758;28;20103;-36
2024/01/19 08:16:07;;;;;;;1.80;0.73;;;19.90;37.60;;;;;;5072782;28;20098;-35
2024/01/19 08:18:34;;;;;;;1.13;0.70;;;19.70;57.10;;;;;;5072656;28;20048;-36
2024/01/19 08:21:03;;;;;;;2.10;0.80;;;19.00;56.90;;;;;;5061512;28;20073;-37
2024/01/19 08:23:29;;;;;;;1.63;0.90;;;18.90;56.70;;;;;;5062741;28;20113;-38
2024/01/19 08:25:58;;;;;;;1.17;0.60;;;20.00;37.60;;;;;;5060265;28;20460;-35
2024/01/19 08:28:25;;;;;;;1.73;0.90;;;;;;;;;;5060714;28;20045;-34
2024/01/19 08:30:51;;;;;;;1.83;0.80;;;19.80;57.00;;;;;;5061128;28;20095;-36
2024/01/19 08:33:19;;;;;;;1.60;0.80;;;;;;;;;;5061930;28;20179;-37
2024/01/19 08:35:46;;;;;;;1.13;0.80;;;20.40;57.20;;;;;;5060843;28;20391;-38
2024/01/19 08:38:14;;;;;;;1.02;0.70;;;;;;;;;;5061500;28;20047;-31
2024/01/19 08:40:41;;;;;;;1.70;0.75;;;;;;;;;;5056105;28;20072;-35
2024/01/19 08:43:10;;;;;;;1.42;0.75;;;20.10;57.00;;;;;;5066434;28;20102;-34
2024/01/19 08:45:37;;;;;;;1.38;0.80;;;19.90;56.90;;;;;;5060272;28;20070;-33
2024/01/19 08:48:05;;;;;;;0.95;0.75;;;19.80;56.70;;;;;;5062509;28;20037;-37
2024/01/19 08:50:31;;;;;;;1.27;0.80;;;20.10;55.30;;;;;;5060825;28;20095;-35
2024/01/19 08:52:58;;;;;;;0.80;0.63;;;21.00;57.40;;;;;;5065379;28;20383;-34
2024/01/19 08:55:26;;;;;;;2.03;1.00;;;;;;;;;;5063275;28;20060;-33
2024/01/19 08:57:53;;;;;;;1.88;0.90;;;20.40;57.40;;;;;;5050710;28;20079;-38
2024/01/19 09:00:21;;;;;;;1.60;0.88;;;20.20;37.50;;;;;;5051251;28;20586;-31
2024/01/19 09:02:48;;;;;;;1.40;0.80;;;20.70;54.80;;;;;;5054236;28;20041;-29
2024/01/19 09:05:15;;;;;;;0.68;0.50;;;20.00;56.70;;;;;;5063652;28;20083;-28
2024/01/19 09:07:42;;;;;;;1.80;0.90;;;20.20;56.70;;;;;;5071943;28;20387;-28
2024/01/19 09:10:09;;;;;;;2.28;0.80;;;20.20;45.10;;;;;;5062183;28;20098;-28
2024/01/19 09:12:36;;;;;;;2.00;0.90;;;;;;;;;;5054221;28;20048;-31
2024/01/19 09:15:04;;;;;;;2.33;0.90;;;20.00;57.10;;;;;;5065267;28;20126;-28
2024/01/19 09:17:32;;;;;;;1.27;0.77;;;21.00;57.60;;;;;;5051656;28;20103;-38
2024/01/19 09:19:59;;;;;;;1.80;0.90;;;20.70;57.40;;;;;;5051480;28;20571;-37
2024/01/19 09:22:27;;;;;;;1.20;0.70;;;;;;;;;;5061292;28;20124;-32
2024/01/19 09:24:53;;;;;;;2.40;0.88;;;20.60;57.10;;;;;;5054422;28;20061;-35
2024/01/19 09:27:21;;;;;;;1.88;1.00;;;;;;;;;;5051476;28;20494;-35
2024/01/19 09:29:48;;;;;;;3.05;1.00;;;20.20;45.40;;;;;;5051437;28;20084;-35
2024/01/19 09:32:17;;;;;;;1.77;0.90;;;20.00;57.00;;;;;;5066252;28;20040;-37
2024/01/19 09:34:45;;;;;;;1.55;0.80;;;19.50;56.30;;;;;;5067212;28;20477;-35
2024/01/19 09:37:12;;;;;;;1.52;0.80;;;20.70;57.00;;;;;;5057936;28;20044;-35
2024/01/19 09:39:39;;;;;;;1.92;0.90;;;;;;;;;;5051095;28;20512;-34
2024/01/19 09:42:09;;;;;;;1.67;0.80;;;20.50;40.70;;;;;;5051325;28;20048;-35
2024/01/19 09:44:35;;;;;;;1.65;0.70;;;19.40;55.80;;;;;;5061038;28;20115;-35
2024/01/19 09:47:17;;;;;;;1.67;0.93;;;20.50;57.20;;;;;;5061490;28;20095;-34
2024/01/19 09:49:54;;;;;;;1.98;0.90;;;20.40;56.80;;;;;;5062181;28;20052;-37
2024/01/19 09:52:25;;;;;;;2.28;0.80;;;20.50;38.40;;;;;;5059358;28;20053;-33
2024/01/19 09:54:51;;;;;;;2.25;1.05;;;21.50;52.10;;;;;;5056257;28;20862;-34
2024/01/19 09:57:18;;;;;;;2.38;0.93;;;20.60;56.70;;;;;;5052609;28;20102;-34
2024/01/19 09:59:45;;;;;;;2.05;0.80;;;;;;;;;;5060659;28;20094;-35
2024/01/19 10:02:12;;;;;;;2.65;0.90;;;20.80;38.90;;;;;;5061403;28;20103;-38
2024/01/19 10:04:40;;;;;;;1.98;0.90;;;;;;;;;;5061386;28;20044;-32
2024/01/19 10:07:08;;;;;;;2.20;0.85;;;21.10;57.10;;;;;;5062050;28;20390;-36
2024/01/19 10:09:35;;;;;;;2.15;0.90;;;19.70;56.10;;;;;;5063274;28;20098;-38
2024/01/19 10:12:02;;;;;;;1.48;0.93;;;;;;;;;;5063831;28;20129;-32
2024/01/19 10:14:29;;;;;;;1.20;0.90;;;20.50;56.50;;;;;;5057544;28;20045;-36
2024/01/19 10:16:56;;;;;;;2.13;0.82;;;;;;;;;;5054752;28;20098;-32
2024/01/19 10:19:23;;;;;;;1.90;1.00;;;21.10;57.10;;;;;;5055010;28;20048;-35
2024/01/19 10:21:50;;;;;;;1.75;0.80;;;19.80;56.10;;;;;;5062128;28;20068;-34
2024/01/19 10:24:19;;;;;;;1.02;0.73;;;20.80;57.00;;;;;;5061462;28;20493;-35
2024/01/19 10:26:46;;;;;;;1.85;0.77;;;20.40;56.70;;;;;;5061213;28;20045;-35
2024/01/19 10:29:13;;;;;;;1.42;0.90;;;20.40;56.60;;;;;;5064635;28;20045;-35
2024/01/19 10:31:40;;;;;;;1.55;0.85;;;;;;;;;;5071339;28;20056;-34
2024/01/19 10:34:15;;;;;;;1.42;0.90;;;20.70;56.80;;;;;;5063395;28;20124;-37
2024/01/19 10:36:42;;;;;;;0.75;0.73;;;;;;;;;;5060366;28;20098;-34
2024/01/19 10:39:21;;;;;;;1.98;0.80;;;21.10;52.30;;;;;;5054681;28;20045;-36
2024/01/19 10:41:48;;;;;;;2.03;1.08;;;20.50;56.40;;;;;;5054421;28;20196;-35
2024/01/19 10:44:16;;;;;;;2.08;0.90;;;20.80;37.30;;;;;;5054281;28;20076;-35
2024/01/19 10:46:43;;;;;;;2.22;0.70;;;21.20;39.90;;;;;;5065862;28;20105;-35
2024/01/19 10:49:10;;;;;;;2.78;1.08;;;20.30;56.30;;;;;;5074161;28;20047;-35
2024/01/19 10:51:39;;;;;;;2.28;1.00;;;21.30;57.00;;;;;;5074578;28;20091;-36
2024/01/19 10:54:07;;;;;;;2.42;1.00;;;21.50;57.10;;;;;;5074027;28;20095;-34
2024/01/19 10:56:35;;;;;;;3.88;1.10;;;20.90;37.20;;;;;;5065055;28;20044;-35
2024/01/19 10:59:11;;;;;;;3.10;1.00;;;21.30;57.00;;;;;;5063133;28;20086;-35
2024/01/19 11:01:38;;;;;;;1.63;0.98;;;21.30;57.00;;;;;;5058523;28;20041;-35
2024/01/19 11:04:07;;;;;;;2.10;1.00;;;20.90;37.20;;;;;;5064914;28;20083;-32
2024/01/19 11:06:34;;;;;;;2.30;0.90;;;20.30;48.30;;;;;;5061796;28;20130;-35
2024/01/19 11:09:01;;;;;;;1.58;0.95;;;19.90;55.60;;;;;;5059010;28;20098;-34
2024/01/19 11:11:27;;;;;;;2.97;1.15;;;20.10;40.70;;;;;;5055229;28;20048;-36
2024/01/19 11:13:56;;;;;;;2.60;1.10;;;21.00;56.30;;;;;;5054281;28;20444;-35
2024/01/19 11:16:24;;;;;;;2.35;1.20;;;20.80;56.00;;;;;;5062924;28;20056;-38
2024/01/19 11:18:51;;;;;;;4.10;1.20;;;20.90;56.50;;;;;;5056502;28;20053;-35
2024/01/19 11:21:18;;;;;;;2.10;0.98;;;;;;;;;;5057566;28;20452;-31
2024/01/19 11:23:45;;;;;;;2.42;1.10;;;20.40;55.90;;;;;;5052496;28;20049;-35
2024/01/19 11:26:14;;;;;;;2.65;1.10;;;21.10;37.20;;;;;;5058365;28;20095;-34
2024/01/19 11:28:47;;;;;;;2.58;1.02;;;21.20;56.70;;;;;;5053499;28;20052;-38
2024/01/19 11:31:17;;;;;;;2.45;1.00;;;21.10;37.30;;;;;;5060619;28;20095;-33
2024/01/19 11:33:45;;;;;;;2.17;0.82;;;;;;;;;;5063921;28;20117;-34
2024/01/19 11:36:12;;;;;;;3.60;1.15;;;21.70;56.90;;;;;;5072628;28;20673;-34
2024/01/19 11:38:45;;;;;;;1.67;1.00;;;21.70;56.40;;;;;;5072969;28;20052;-28
2024/01/19 11:41:46;;;;;;;2.50;1.10;;;21.10;37.10;;;;;;5073291;28;20079;-33
2024/01/19 11:44:40;;;;;;;2.25;0.90;;;21.20;56.50;;;;;;5061171;28;20080;-30
2024/01/19 11:47:08;;;;;;;2.78;1.20;;;21.50;56.30;;;;;;5053307;28;20064;-29
2024/01/19 11:49:48;;;;;;;3.17;1.10;;;21.10;37.10;;;;;;5052807;28;20095;-28
2024/01/19 11:52:37;;;;;;;2.58;1.10;;;21.00;52.00;;;;;;5053039;28;20470;-28
2024/01/19 11:55:34;;;;;;;2.72;1.10;;;21.40;56.60;;;;;;5053108;28;20133;-39
2024/01/19 11:58:39;;;;;;;2.10;1.20;;;21.20;37.20;;;;;;5048095;28;20056;-32
2024/01/19 12:01:07;;;;;;;2.53;1.10;;;20.90;55.90;;;;;;5053137;28;20110;-38
2024/01/19 12:03:35;;;;;;;2.65;1.30;;;21.20;37.20;;;;;;5052790;28;20045;-38
2024/01/19 12:06:03;;;;;;;2.78;1.00;;;22.20;56.90;;;;;;5052723;28;20045;-28
2024/01/19 12:08:30;;;;;;;2.25;1.20;;;22.10;41.30;;;;;;5052706;28;20052;-29
2024/01/19 12:11:09;;;;;;;5.57;1.75;;;21.30;56.10;;;;;;5053366;28;20402;-34
2024/01/19 12:13:38;;;;;;;2.10;1.10;;;20.70;56.10;;;;;;5072559;28;20409;-34
2024/01/19 12:16:06;;;;;;;2.55;1.00;;;;;;;;;;5072485;28;20485;-33
2024/01/19 12:18:34;;;;;;;1.52;1.10;;;22.20;56.90;;;;;;5072479;28;20413;-35
2024/01/19 12:21:01;;;;;;;2.53;1.02;;;;;;;;;;5072528;28;20048;-34
2024/01/19 12:23:29;;;;;;;2.45;1.13;;;22.10;52.60;;;;;;5072038;28;20052;-35
2024/01/19 12:25:57;;;;;;;2.65;1.05;;;21.00;55.70;;;;;;5072333;28;20731;-37
2024/01/19 12:28:24;;;;;;;3.13;1.10;;;;;;;;;;5072208;28;20048;-37
2024/01/19 12:30:52;;;;;;;3.13;1.20;;;22.30;56.40;;;;;;5072336;28;20052;-38
2024/01/19 12:33:21;;;;;;;2.85;1.27;;;21.20;56.10;;;;;;5070898;28;20493;-38
2024/01/19 12:35:49;;;;;;;3.63;1.20;;;21.30;37.10;;;;;;5052478;28;20045;-33
2024/01/19 12:38:16;;;;;;;3.25;1.40;;;;;;;;;;5071530;28;20048;-34
2024/01/19 12:40:43;;;;;;;1.50;0.95;;;20.50;55.30;;;;;;5071268;28;20106;-36
2024/01/19 12:43:10;;;;;;;1.52;1.05;;;;;;;;;;5071808;28;20485;-34
2024/01/19 12:45:37;;;;;;;2.10;1.17;;;20.60;55.40;;;;;;5072149;28;20080;-28
2024/01/19 12:48:06;;;;;;;2.22;1.10;;;;;;;;;;5065681;28;20052;-33
2024/01/19 12:50:33;;;;;;;2.90;1.30;;;;;;;;;;5063039;28;20083;-33
2024/01/19 12:53:01;;;;;;;2.78;1.08;;;21.40;54.00;;;;;;5071269;28;20048;-28
2024/01/19 12:55:29;;;;;;;1.80;1.10;;;21.30;56.10;;;;;;5063868;28;20486;-30
2024/01/19 12:57:56;;;;;;;2.25;1.15;;;21.20;42.60;;;;;;5060052;28;20489;-29
2024/01/19 13:00:26;;;;;;;3.72;1.20;;;21.40;55.80;;;;;;5061669;28;20098;-28
2024/01/19 13:02:53;;;;;;;1.42;1.08;;;21.40;37.10;;;;;;5060593;28;20068;-33
2024/01/19 13:05:20;;;;;;;3.55;1.20;;;21.30;56.10;;;;;;5061158;28;20052;-28
2024/01/19 13:07:47;;;;;;;1.65;1.00;;;20.90;46.80;;;;;;5062584;28;20080;-29
2024/01/19 13:10:17;;;;;;;3.00;1.17;;;21.50;55.80;;;;;;5060585;28;20044;-34
2024/01/19 13:12:44;;;;;;;3.22;1.45;;;20.70;55.70;;;;;;5060970;28;20509;-38
2024/01/19 13:15:11;;;;;;;3.25;1.20;;;21.60;55.80;;;;;;5062517;28;20055;-36